KGVL/GVL METAR and TAF weather

Enter ICAO airport designator
Station Type Date Time Source
KGVL METAR 2021/09/25 12:53 UTC NOAA

KGVL 251253Z AUTO 00000KT 10SM CLR 15/12 A3016 RMK AO2 SLP204 T01500122


Station Type Date Time Source
KGVL Decoded METAR 2021/09/25 12:53 UTC NOAA

GILMER MEMORIAL AIRPORT, GA, United States (KGVL) 34-16N 83-50W 386M
Sep 25, 2021 - 08:53 AM EDT / 2021.09.25 1253 UTC
Wind: Calm:0
Visibility: 10 mile(s):0
Sky conditions: clear
Temperature: 59.0 F (15.0 C)
Dew Point: 54.0 F (12.2 C)
Relative Humidity: 83%
Pressure (altimeter): 30.16 in. Hg (1021 hPa)
ob: KGVL 251253Z AUTO 00000KT 10SM CLR 15/12 A3016 RMK AO2 SLP204 T01500122
cycle: 13

Station Type Date Time Source
KGVL TAF UTC NOAA

Error!

Example: see airport list